createdAt,value
2023-02-04T00:05:19.140Z,82.33
2023-02-04T00:15:40.558Z,81.98
2023-02-04T00:26:01.904Z,82.45
2023-02-04T00:36:23.266Z,81.91
2023-02-04T00:46:44.671Z,81.83
2023-02-04T00:57:06.001Z,82.01
2023-02-04T01:07:27.387Z,81.62
2023-02-04T01:17:48.924Z,81.04
2023-02-04T01:28:10.408Z,81.29
2023-02-04T01:38:31.796Z,81.90
2023-02-04T01:48:53.802Z,81.31
2023-02-04T01:59:16.601Z,81.67
2023-02-04T02:09:37.963Z,82.04
2023-02-04T02:19:59.397Z,81.94
2023-02-04T02:30:20.973Z,82.69
2023-02-04T02:40:42.852Z,83.14
2023-02-04T02:51:04.327Z,83.90
2023-02-04T03:01:26.142Z,83.43
2023-02-04T03:11:47.717Z,84.01
2023-02-04T03:22:09.199Z,83.42
2023-02-04T03:32:30.594Z,83.45
2023-02-04T03:42:52.027Z,85.28
2023-02-04T03:53:13.417Z,84.58
2023-02-04T04:03:34.789Z,84.33
2023-02-04T04:13:56.172Z,85.31
2023-02-04T04:24:17.543Z,85.64
2023-02-04T04:34:38.920Z,86.46
2023-02-04T04:45:00.318Z,85.96
2023-02-04T04:55:21.753Z,85.31
2023-02-04T05:05:44.253Z,84.60
2023-02-04T05:16:05.706Z,84.37
2023-02-04T05:26:30.815Z,84.36
2023-02-04T05:36:52.556Z,85.12
2023-02-04T05:47:13.901Z,85.23
2023-02-04T05:57:35.337Z,85.42
2023-02-04T06:07:56.692Z,85.33
2023-02-04T06:18:18.052Z,85.71
2023-02-04T06:28:39.394Z,84.72
2023-02-04T06:39:00.774Z,85.80
2023-02-04T06:49:22.247Z,85.79
2023-02-04T06:59:43.747Z,85.56
2023-02-04T07:10:05.257Z,86.39
2023-02-04T07:20:26.639Z,86.16
2023-02-04T07:30:48.112Z,85.69
2023-02-04T07:41:09.571Z,85.86
2023-02-04T07:51:31.138Z,86.18
2023-02-04T08:01:52.609Z,86.40
2023-02-04T08:12:14.098Z,86.60
2023-02-04T08:22:35.701Z,85.84
2023-02-04T08:32:57.037Z,85.22
2023-02-04T08:43:18.437Z,84.65
2023-02-04T08:53:40.671Z,85.11
2023-02-04T09:04:02.079Z,84.49
2023-02-04T09:14:23.485Z,83.60
2023-02-04T09:24:44.884Z,83.75
2023-02-04T09:35:06.312Z,82.59
2023-02-04T09:45:29.703Z,83.68
2023-02-04T09:55:51.968Z,84.09
2023-02-04T10:06:14.360Z,81.65
2023-02-04T10:16:37.862Z,78.48
2023-02-04T10:27:09.331Z,79.32
2023-02-04T10:37:32.046Z,79.89
2023-02-04T10:47:54.404Z,78.37
2023-02-04T10:58:18.657Z,76.53
2023-02-04T11:08:40.563Z,77.13
2023-02-04T11:19:04.153Z,76.90
2023-02-04T11:29:34.613Z,76.15
2023-02-04T11:39:58.578Z,75.76
2023-02-04T11:50:19.914Z,75.24
2023-02-04T12:00:42.473Z,74.87
2023-02-04T12:11:11.167Z,73.47
2023-02-04T12:21:32.518Z,75.37
2023-02-04T12:31:53.981Z,74.63
2023-02-04T12:42:15.427Z,74.01
2023-02-04T12:52:39.737Z,74.36
2023-02-04T13:03:02.972Z,73.31
2023-02-04T13:13:24.341Z,72.27
2023-02-04T13:23:45.804Z,74.28
2023-02-04T13:34:07.248Z,73.17
2023-02-04T13:44:28.610Z,72.43
2023-02-04T13:54:50.065Z,73.20
2023-02-04T14:05:11.422Z,71.88
2023-02-04T14:15:34.709Z,73.22
2023-02-04T14:25:56.166Z,73.75
2023-02-04T14:36:17.574Z,73.26
2023-02-04T14:46:41.061Z,72.01
2023-02-04T14:57:02.442Z,73.31
2023-02-04T15:07:23.788Z,75.02
2023-02-04T15:17:45.180Z,74.24
2023-02-04T15:28:07.404Z,73.79
2023-02-04T15:38:28.804Z,73.59
2023-02-04T15:48:50.192Z,73.43
2023-02-04T15:59:11.588Z,74.16
2023-02-04T16:09:32.952Z,75.32
2023-02-04T16:19:54.386Z,74.16
2023-02-04T16:30:15.907Z,76.24
2023-02-04T16:40:37.255Z,77.90
2023-02-04T16:50:58.643Z,77.27
2023-02-04T17:01:20.023Z,76.50
2023-02-04T17:11:48.778Z,77.18
2023-02-04T17:22:10.141Z,77.73
2023-02-04T17:32:31.554Z,78.18
2023-02-04T17:42:53.053Z,78.45
2023-02-04T17:53:14.452Z,77.89
2023-02-04T18:03:36.186Z,78.18
2023-02-04T18:14:00.750Z,78.25
2023-02-04T18:24:27.112Z,78.42
2023-02-04T18:34:52.795Z,78.49
2023-02-04T18:45:20.078Z,79.24
2023-02-04T18:55:43.432Z,79.51
2023-02-04T19:06:16.849Z,78.68
2023-02-04T19:16:38.287Z,78.97
2023-02-04T19:27:00.861Z,79.18
2023-02-04T19:37:26.983Z,79.63
2023-02-04T19:47:49.664Z,80.16
2023-02-04T19:58:17.401Z,79.85
2023-02-04T20:08:43.557Z,79.67
2023-02-04T20:19:23.774Z,79.88
2023-02-04T20:29:45.452Z,80.62
2023-02-04T20:40:27.077Z,80.40
2023-02-04T20:50:51.870Z,79.83
2023-02-04T21:01:29.560Z,80.70
2023-02-04T21:11:52.000Z,80.92
2023-02-04T21:22:13.376Z,80.20
2023-02-04T21:32:34.758Z,80.35
2023-02-04T21:42:56.183Z,81.09
2023-02-04T21:53:17.593Z,81.51
2023-02-04T22:03:39.017Z,81.36
2023-02-04T22:14:19.030Z,81.24
2023-02-04T22:24:40.438Z,82.10
2023-02-04T22:35:01.856Z,81.74
2023-02-04T22:45:23.239Z,81.55
2023-02-04T22:55:44.615Z,81.38
2023-02-04T23:06:06.207Z,81.65
2023-02-04T23:16:27.629Z,81.78
2023-02-04T23:26:49.049Z,80.30
2023-02-04T23:37:10.445Z,81.78
2023-02-04T23:47:31.794Z,80.30
2023-02-04T23:57:53.166Z,81.18
